createdAt,value
2019-03-23T00:00:15.235Z,78.86
2019-03-23T00:03:03.169Z,79.40
2019-03-23T00:05:31.551Z,78.65
2019-03-23T00:07:59.933Z,78.91
2019-03-23T00:11:08.199Z,80.51
2019-03-23T00:13:37.474Z,80.10
2019-03-23T00:16:05.925Z,78.84
2019-03-23T00:18:34.474Z,78.89
2019-03-23T00:21:03.415Z,79.49
2019-03-23T00:23:32.215Z,80.87
2019-03-23T00:26:20.628Z,80.82
2019-03-23T00:28:49.765Z,80.40
2019-03-23T00:31:37.669Z,80.57
2019-03-23T00:34:17.926Z,79.96
2019-03-23T00:36:46.766Z,80.83
2019-03-23T00:39:15.612Z,81.43
2019-03-23T00:41:44.100Z,82.22
2019-03-23T00:44:13.222Z,82.08
2019-03-23T00:47:21.702Z,82.05
2019-03-23T00:52:52.415Z,82.49
2019-03-23T00:58:42.011Z,80.49
2019-03-23T01:01:29.633Z,80.38
2019-03-23T01:03:58.118Z,81.30
2019-03-23T01:06:26.620Z,81.96
2019-03-23T01:08:55.729Z,81.94
2019-03-23T01:14:48.400Z,81.61
2019-03-23T01:17:17.179Z,80.55
2019-03-23T01:19:46.271Z,79.34
2019-03-23T01:22:15.434Z,79.42
2019-03-23T01:24:44.354Z,79.22
2019-03-23T01:27:13.474Z,80.16
2019-03-23T01:29:42.366Z,81.80
2019-03-23T01:32:10.956Z,82.13
2019-03-23T01:34:39.835Z,81.01
2019-03-23T01:37:08.539Z,80.09
2019-03-23T01:39:37.421Z,79.79
2019-03-23T01:42:06.329Z,79.29
2019-03-23T01:44:34.757Z,78.74
2019-03-23T01:47:03.268Z,78.98
2019-03-23T01:49:31.821Z,80.24
2019-03-23T01:55:03.385Z,81.93
2019-03-23T01:57:32.217Z,82.33
2019-03-23T02:00:01.029Z,82.68
2019-03-23T02:02:30.192Z,82.93
2019-03-23T02:07:59.639Z,82.09
2019-03-23T02:10:28.398Z,82.85
2019-03-23T02:12:57.280Z,83.34
2019-03-23T02:15:38.046Z,83.21
2019-03-23T02:24:29.070Z,84.33
2019-03-23T02:26:58.219Z,83.84
2019-03-23T02:32:27.219Z,82.87
2019-03-23T02:34:56.327Z,82.69
2019-03-23T02:37:56.098Z,82.35
2019-03-23T02:40:24.498Z,81.42
2019-03-23T02:42:52.994Z,81.25
2019-03-23T02:45:22.105Z,81.80
2019-03-23T02:47:50.942Z,83.16
2019-03-23T02:50:19.969Z,81.95
2019-03-23T02:52:49.208Z,81.27
2019-03-23T02:55:18.398Z,80.07
2019-03-23T02:57:47.322Z,79.46
2019-03-23T03:03:36.450Z,78.66
2019-03-23T03:06:05.675Z,80.47
2019-03-23T03:08:33.729Z,82.08
2019-03-23T03:11:02.132Z,81.90
2019-03-23T03:13:31.225Z,82.33
2019-03-23T03:16:00.120Z,82.17
2019-03-23T03:18:29.253Z,83.06
2019-03-23T03:20:58.376Z,83.63
2019-03-23T03:23:27.221Z,84.45
2019-03-23T03:25:56.309Z,83.32
2019-03-23T03:28:24.870Z,83.76
2019-03-23T03:30:54.160Z,82.50
2019-03-23T03:33:23.332Z,82.19
2019-03-23T03:35:52.165Z,82.29
2019-03-23T03:38:20.588Z,81.89
2019-03-23T03:40:49.375Z,81.36
2019-03-23T03:43:18.524Z,81.53
2019-03-23T03:45:47.376Z,81.29
2019-03-23T03:48:16.010Z,80.86
2019-03-23T03:50:44.961Z,80.86
2019-03-23T03:53:13.887Z,80.57
2019-03-23T03:55:42.836Z,80.62
2019-03-23T03:58:11.819Z,81.65
2019-03-23T04:00:41.008Z,83.16
2019-03-23T04:03:10.178Z,83.59
2019-03-23T04:05:38.952Z,84.49
2019-03-23T04:08:11.650Z,83.92
2019-03-23T04:10:44.424Z,83.64
2019-03-23T04:16:22.741Z,84.07
2019-03-23T04:18:51.156Z,84.78
2019-03-23T04:21:19.996Z,83.83
2019-03-23T04:23:48.506Z,82.53
2019-03-23T04:26:16.950Z,82.40
2019-03-23T04:28:45.439Z,82.87
2019-03-23T04:31:14.338Z,84.05
2019-03-23T04:33:43.145Z,83.51
2019-03-23T04:36:12.068Z,82.27
2019-03-23T04:42:00.569Z,83.35
2019-03-23T04:44:29.701Z,83.62
2019-03-23T04:46:58.963Z,84.45
2019-03-23T04:52:56.052Z,84.69
2019-03-23T04:58:27.110Z,84.85
2019-03-23T05:00:56.419Z,85.70
2019-03-23T05:03:25.320Z,85.54
2019-03-23T05:08:56.364Z,84.60
2019-03-23T05:11:25.258Z,84.00
2019-03-23T05:13:54.409Z,83.45
2019-03-23T05:16:34.504Z,84.56
2019-03-23T05:19:03.665Z,84.75
2019-03-23T05:21:32.534Z,84.34
2019-03-23T05:24:01.631Z,83.76
2019-03-23T05:26:30.450Z,84.83
2019-03-23T05:28:59.309Z,84.79
2019-03-23T05:31:28.509Z,83.95
2019-03-23T05:33:56.989Z,83.95
2019-03-23T05:36:26.109Z,83.95
2019-03-23T05:38:55.214Z,84.36
2019-03-23T05:41:35.787Z,84.64
2019-03-23T05:44:04.346Z,84.97
2019-03-23T05:46:32.839Z,85.14
2019-03-23T05:49:02.123Z,85.17
2019-03-23T05:51:30.925Z,85.42
2019-03-23T05:53:59.778Z,86.56
2019-03-23T05:59:49.400Z,85.05
2019-03-23T06:02:17.789Z,84.67
2019-03-23T06:04:46.684Z,84.51
2019-03-23T06:07:15.171Z,84.75
2019-03-23T06:09:44.305Z,84.48
2019-03-23T06:12:13.631Z,84.54
2019-03-23T06:14:42.830Z,84.12
2019-03-23T06:17:11.674Z,84.21
2019-03-23T06:19:40.522Z,84.42
2019-03-23T06:22:09.686Z,84.27
2019-03-23T06:25:08.953Z,84.08
2019-03-23T06:27:37.345Z,83.89
2019-03-23T06:30:45.875Z,83.91
2019-03-23T06:33:14.744Z,83.68
2019-03-23T06:35:43.565Z,83.43
2019-03-23T06:38:12.168Z,83.80
2019-03-23T06:40:41.024Z,84.70
2019-03-23T06:43:10.238Z,83.87
2019-03-23T06:45:39.355Z,83.39
2019-03-23T06:48:08.435Z,83.29
2019-03-23T06:53:38.841Z,83.74
2019-03-23T06:56:07.661Z,83.84
2019-03-23T06:58:38.597Z,83.81
2019-03-23T07:01:13.749Z,83.94
2019-03-23T07:03:42.532Z,83.95
2019-03-23T07:06:11.101Z,83.83
2019-03-23T07:08:39.906Z,83.78
2019-03-23T07:11:08.815Z,83.54
2019-03-23T07:13:38.030Z,83.47
2019-03-23T07:16:06.889Z,83.57
2019-03-23T07:18:35.764Z,83.29
2019-03-23T07:21:04.730Z,83.25
2019-03-23T07:23:33.801Z,83.29
2019-03-23T07:26:02.580Z,83.30
2019-03-23T07:29:11.484Z,83.14
2019-03-23T07:31:40.704Z,83.19
2019-03-23T07:37:18.999Z,83.45
2019-03-23T07:40:27.916Z,83.77
2019-03-23T07:42:56.721Z,83.41
2019-03-23T07:45:25.664Z,83.12
2019-03-23T07:47:54.457Z,82.76
2019-03-23T07:50:23.380Z,82.65
2019-03-23T07:53:11.355Z,83.46
2019-03-23T07:55:39.852Z,83.02
2019-03-23T07:58:39.564Z,82.33
2019-03-23T08:01:27.169Z,81.90
2019-03-23T08:03:56.276Z,81.24
2019-03-23T08:06:25.257Z,80.12
2019-03-23T08:08:53.836Z,78.88
2019-03-23T08:11:22.698Z,77.88
2019-03-23T08:16:54.714Z,76.02
2019-03-23T08:19:22.785Z,75.79
2019-03-23T08:21:51.901Z,75.22
2019-03-23T08:24:21.127Z,73.08
2019-03-23T08:26:50.026Z,70.88
2019-03-23T08:29:19.064Z,67.40
2019-03-23T08:31:47.977Z,62.94
2019-03-23T08:34:16.794Z,60.12
2019-03-23T08:36:46.004Z,54.91
2019-03-23T08:39:14.875Z,51.10
2019-03-23T08:41:43.267Z,49.68
2019-03-23T08:44:12.041Z,48.40
2019-03-23T08:46:41.139Z,48.88
2019-03-23T08:49:09.661Z,43.07
2019-03-23T08:51:38.476Z,42.96
2019-03-23T08:54:07.394Z,36.71
2019-03-23T08:56:37.523Z,36.22
2019-03-23T08:59:06.355Z,37.44
2019-03-23T09:01:35.482Z,35.85
2019-03-23T09:04:04.391Z,37.03
2019-03-23T09:06:33.584Z,37.91
2019-03-23T09:09:01.761Z,41.08
2019-03-23T09:11:30.395Z,37.66
2019-03-23T09:13:59.743Z,40.55
2019-03-23T09:16:28.721Z,39.23
2019-03-23T09:18:57.164Z,38.90
2019-03-23T09:21:26.183Z,38.27
2019-03-23T09:23:55.306Z,41.26
2019-03-23T09:26:24.507Z,37.02
2019-03-23T09:28:53.295Z,35.53
2019-03-23T09:31:21.390Z,38.13
2019-03-23T09:33:50.090Z,35.98
2019-03-23T09:36:22.793Z,39.16
2019-03-23T09:38:56.475Z,36.30
2019-03-23T09:41:24.970Z,37.60
2019-03-23T09:43:53.440Z,35.53
2019-03-23T09:46:22.195Z,35.06
2019-03-23T09:48:51.451Z,31.76
2019-03-23T09:51:20.261Z,33.42
2019-03-23T09:53:49.536Z,34.27
2019-03-23T09:56:18.658Z,31.18
2019-03-23T09:58:47.962Z,30.70
2019-03-23T10:01:17.055Z,29.97
2019-03-23T10:03:46.165Z,31.74
2019-03-23T10:06:14.626Z,31.15
2019-03-23T10:08:43.113Z,28.32
2019-03-23T10:11:12.340Z,30.93
2019-03-23T10:13:41.144Z,28.07
2019-03-23T10:16:10.237Z,29.19
2019-03-23T10:18:39.052Z,28.87
2019-03-23T10:21:07.859Z,30.58
2019-03-23T10:23:36.803Z,29.86
2019-03-23T10:26:05.600Z,26.75
2019-03-23T10:28:34.426Z,27.42
2019-03-23T10:31:03.695Z,25.66
2019-03-23T10:33:32.797Z,25.71
2019-03-23T10:36:02.191Z,26.34
2019-03-23T10:38:30.895Z,26.65
2019-03-23T10:41:00.027Z,26.71
2019-03-23T10:43:29.283Z,23.50
2019-03-23T10:45:58.232Z,25.68
2019-03-23T10:48:27.496Z,23.63
2019-03-23T10:50:56.391Z,23.19
2019-03-23T10:53:24.780Z,24.32
2019-03-23T10:55:54.025Z,23.63
2019-03-23T10:58:22.447Z,23.00
2019-03-23T11:00:51.639Z,23.70
2019-03-23T11:03:20.485Z,23.50
2019-03-23T11:05:49.657Z,23.21
2019-03-23T11:08:18.197Z,23.46
2019-03-23T11:10:47.402Z,24.99
2019-03-23T11:13:16.347Z,27.68
2019-03-23T11:15:44.755Z,25.41
2019-03-23T11:18:13.836Z,25.05
2019-03-23T11:20:42.726Z,24.33
2019-03-23T11:23:10.705Z,26.14
2019-03-23T11:25:39.979Z,27.13
2019-03-23T11:28:08.460Z,24.18
2019-03-23T11:30:37.641Z,22.25
2019-03-23T11:33:06.716Z,21.99
2019-03-23T11:35:35.567Z,21.07
2019-03-23T11:38:04.066Z,23.39
2019-03-23T11:40:33.251Z,23.96
2019-03-23T11:43:02.477Z,23.23
2019-03-23T11:45:30.946Z,24.05
2019-03-23T11:47:59.767Z,23.54
2019-03-23T11:50:28.866Z,21.83
2019-03-23T11:52:57.401Z,22.85
2019-03-23T11:55:26.041Z,22.66
2019-03-23T11:57:55.144Z,23.45
2019-03-23T12:00:23.945Z,24.93
2019-03-23T12:02:52.436Z,24.05
2019-03-23T12:05:21.556Z,24.77
2019-03-23T12:07:50.736Z,26.45
2019-03-23T12:10:19.842Z,25.15
2019-03-23T12:12:48.353Z,27.07
2019-03-23T12:15:17.222Z,26.32
2019-03-23T12:17:45.962Z,26.93
2019-03-23T12:20:15.411Z,26.03
2019-03-23T12:22:43.925Z,24.22
2019-03-23T12:25:12.407Z,24.03
2019-03-23T12:27:41.233Z,24.67
2019-03-23T12:30:50.157Z,25.77
2019-03-23T12:33:18.946Z,23.27
2019-03-23T12:38:28.350Z,24.71
2019-03-23T12:40:57.059Z,23.92
2019-03-23T12:43:25.990Z,25.10
2019-03-23T12:45:54.839Z,24.31
2019-03-23T12:49:03.785Z,22.96
2019-03-23T12:51:32.222Z,24.40
2019-03-23T12:54:01.492Z,24.10
2019-03-23T12:56:30.621Z,24.17
2019-03-23T12:58:59.737Z,24.99
2019-03-23T13:01:28.594Z,24.26
2019-03-23T13:04:28.164Z,23.08
2019-03-23T13:06:57.360Z,22.82
2019-03-23T13:10:05.599Z,23.09
2019-03-23T13:12:34.781Z,21.03
2019-03-23T13:15:03.694Z,20.90
2019-03-23T13:17:32.807Z,21.38
2019-03-23T13:20:02.105Z,22.79
2019-03-23T13:22:30.535Z,21.63
2019-03-23T13:24:59.416Z,20.88
2019-03-23T13:27:28.008Z,21.11
2019-03-23T13:29:56.896Z,21.16
2019-03-23T13:32:25.808Z,20.30
2019-03-23T13:34:54.661Z,20.65
2019-03-23T13:37:23.490Z,21.16
2019-03-23T13:39:52.658Z,21.79
2019-03-23T13:42:21.586Z,21.70
2019-03-23T13:44:50.692Z,21.96
2019-03-23T13:47:19.937Z,20.14
2019-03-23T13:49:49.100Z,20.44
2019-03-23T13:52:17.978Z,19.93
2019-03-23T13:54:47.061Z,20.94
2019-03-23T13:57:16.220Z,20.73
2019-03-23T13:59:45.069Z,20.18
2019-03-23T14:02:13.545Z,20.03
2019-03-23T14:04:41.696Z,20.01
2019-03-23T14:07:09.772Z,20.80
2019-03-23T14:09:38.626Z,20.15
2019-03-23T14:12:07.406Z,20.16
2019-03-23T14:14:36.231Z,20.38
2019-03-23T14:17:04.580Z,21.91
2019-03-23T14:19:33.381Z,21.94
2019-03-23T14:22:02.522Z,21.92
2019-03-23T14:24:31.422Z,22.63
2019-03-23T14:27:00.306Z,21.64
2019-03-23T14:29:29.386Z,21.86
2019-03-23T14:31:58.185Z,21.49
2019-03-23T14:34:27.281Z,21.38
2019-03-23T14:36:55.765Z,20.36
2019-03-23T14:39:24.643Z,20.71
2019-03-23T14:41:53.047Z,19.97
2019-03-23T14:44:22.035Z,20.41
2019-03-23T14:46:50.516Z,20.39
2019-03-23T14:49:19.380Z,20.36
2019-03-23T14:51:47.951Z,19.26
2019-03-23T14:54:16.795Z,20.13
2019-03-23T14:56:45.617Z,18.77
2019-03-23T14:59:14.426Z,18.75
2019-03-23T15:01:43.384Z,19.18
2019-03-23T15:04:23.401Z,19.62
2019-03-23T15:06:52.651Z,19.61
2019-03-23T15:09:21.346Z,20.52
2019-03-23T15:11:50.571Z,20.64
2019-03-23T15:14:18.641Z,20.68
2019-03-23T15:16:47.156Z,19.25
2019-03-23T15:19:15.829Z,20.07
2019-03-23T15:21:52.354Z,20.21
2019-03-23T15:24:20.882Z,21.00
2019-03-23T15:26:49.691Z,20.51
2019-03-23T15:29:18.646Z,19.45
2019-03-23T15:31:47.482Z,20.29
2019-03-23T15:34:16.365Z,19.86
2019-03-23T15:36:45.225Z,19.85
2019-03-23T15:39:14.351Z,19.60
2019-03-23T15:41:43.312Z,19.70
2019-03-23T15:44:12.322Z,20.08
2019-03-23T15:46:41.686Z,20.14
2019-03-23T15:49:10.544Z,19.68
2019-03-23T15:51:38.981Z,20.04
2019-03-23T15:54:07.897Z,20.38
2019-03-23T15:56:36.369Z,20.65
2019-03-23T15:59:04.925Z,21.23
2019-03-23T16:01:34.134Z,20.72
2019-03-23T16:04:03.096Z,22.26
2019-03-23T16:06:39.347Z,22.16
2019-03-23T16:09:08.568Z,22.50
2019-03-23T16:11:37.442Z,21.89
2019-03-23T16:14:06.671Z,22.00
2019-03-23T16:16:36.026Z,22.57
2019-03-23T16:19:05.303Z,23.18
2019-03-23T16:21:34.164Z,23.58
2019-03-23T16:24:02.637Z,24.04
2019-03-23T16:26:31.793Z,23.83
2019-03-23T16:29:01.078Z,24.02
2019-03-23T16:31:29.951Z,24.72
2019-03-23T16:33:58.852Z,25.92
2019-03-23T16:36:27.727Z,26.93
2019-03-23T16:38:56.631Z,28.07
2019-03-23T16:41:25.841Z,28.72
2019-03-23T16:43:54.923Z,29.78
2019-03-23T16:46:23.821Z,30.41
2019-03-23T16:48:52.987Z,32.63
2019-03-23T16:51:21.898Z,34.76
2019-03-23T16:53:50.442Z,37.24
2019-03-23T16:56:19.274Z,38.91
2019-03-23T16:58:48.728Z,40.36
2019-03-23T17:01:17.317Z,40.97
2019-03-23T17:03:46.558Z,42.15
2019-03-23T17:06:15.107Z,42.74
2019-03-23T17:08:44.183Z,43.43
2019-03-23T17:11:13.498Z,44.14
2019-03-23T17:13:41.607Z,44.66
2019-03-23T17:16:10.154Z,45.34
2019-03-23T17:18:38.675Z,45.85
2019-03-23T17:21:07.856Z,46.20
2019-03-23T17:23:36.999Z,47.00
2019-03-23T17:26:06.077Z,47.37
2019-03-23T17:28:34.849Z,48.54
2019-03-23T17:31:03.753Z,48.62
2019-03-23T17:33:32.604Z,49.35
2019-03-23T17:36:01.747Z,49.70
2019-03-23T17:38:30.762Z,50.84
2019-03-23T17:40:59.751Z,51.17
2019-03-23T17:43:28.251Z,51.81
2019-03-23T17:45:56.720Z,52.76
2019-03-23T17:48:25.898Z,53.01
2019-03-23T17:50:54.822Z,53.74
2019-03-23T17:53:23.617Z,54.09
2019-03-23T17:55:52.015Z,54.50
2019-03-23T17:58:20.914Z,55.04
2019-03-23T18:00:49.999Z,55.68
2019-03-23T18:03:19.207Z,56.36
2019-03-23T18:05:48.059Z,56.93
2019-03-23T18:08:16.888Z,57.16
2019-03-23T18:10:45.723Z,57.64
2019-03-23T18:13:16.826Z,58.65
2019-03-23T18:15:51.555Z,58.96
2019-03-23T18:18:20.603Z,59.13
2019-03-23T18:20:49.048Z,59.57
2019-03-23T18:23:18.247Z,59.64
2019-03-23T18:25:46.444Z,60.29
2019-03-23T18:28:15.649Z,60.88
2019-03-23T18:31:24.816Z,60.89
2019-03-23T18:33:54.909Z,60.96
2019-03-23T18:36:24.172Z,61.73
2019-03-23T18:39:12.003Z,61.61
2019-03-23T18:41:52.789Z,61.66
2019-03-23T18:44:22.435Z,62.16
2019-03-23T18:46:51.278Z,62.25
2019-03-23T18:49:20.707Z,62.64
2019-03-23T18:51:49.601Z,62.32
2019-03-23T18:54:18.691Z,62.60
2019-03-23T18:56:59.664Z,62.96
2019-03-23T18:59:48.204Z,63.00
2019-03-23T19:02:16.609Z,62.95
2019-03-23T19:04:45.777Z,63.15
2019-03-23T19:07:14.632Z,63.27
2019-03-23T19:09:43.164Z,63.63
2019-03-23T19:12:12.071Z,63.70
2019-03-23T19:14:40.850Z,63.86
2019-03-23T19:17:10.028Z,64.01
2019-03-23T19:19:39.207Z,64.43
2019-03-23T19:22:08.484Z,64.26
2019-03-23T19:27:17.359Z,65.04
2019-03-23T19:29:46.158Z,65.80
2019-03-23T19:32:15.455Z,65.24
2019-03-23T19:34:44.350Z,65.54
2019-03-23T19:37:12.839Z,66.06
2019-03-23T19:39:41.688Z,66.71
2019-03-23T19:42:50.708Z,67.19
2019-03-23T19:45:19.690Z,67.25
2019-03-23T19:47:48.809Z,67.54
2019-03-23T19:50:18.047Z,67.49
2019-03-23T19:52:46.900Z,67.42
2019-03-23T19:55:16.042Z,67.81
2019-03-23T19:57:45.033Z,67.83
2019-03-23T20:03:15.202Z,68.70
2019-03-23T20:05:44.012Z,69.15
2019-03-23T20:08:13.254Z,68.71
2019-03-23T20:10:42.479Z,69.22
2019-03-23T20:13:10.919Z,69.06
2019-03-23T20:15:40.121Z,69.41
2019-03-23T20:18:09.218Z,69.77
2019-03-23T20:20:37.939Z,70.04
2019-03-23T20:23:06.689Z,70.25
2019-03-23T20:25:36.052Z,70.63
2019-03-23T20:28:05.312Z,70.45
2019-03-23T20:30:34.223Z,70.29
2019-03-23T20:33:03.449Z,70.54
2019-03-23T20:35:32.065Z,70.71
2019-03-23T20:38:00.198Z,70.39
2019-03-23T20:40:29.374Z,71.30
2019-03-23T20:42:58.177Z,71.48
2019-03-23T20:45:29.155Z,71.68
2019-03-23T20:48:09.289Z,72.01
2019-03-23T20:51:18.182Z,72.21
2019-03-23T20:53:47.497Z,71.62
2019-03-23T20:56:16.546Z,72.01
2019-03-23T20:58:45.479Z,72.27
2019-03-23T21:01:14.783Z,72.80
2019-03-23T21:03:43.276Z,72.37
2019-03-23T21:06:12.661Z,73.04
2019-03-23T21:09:07.588Z,73.18
2019-03-23T21:11:47.838Z,73.32
2019-03-23T21:17:27.106Z,73.59
2019-03-23T21:19:56.298Z,74.09
2019-03-23T21:22:36.908Z,74.29
2019-03-23T21:25:06.637Z,74.38
2019-03-23T21:27:35.543Z,74.66
2019-03-23T21:33:32.169Z,74.84
2019-03-23T21:36:28.803Z,74.95
2019-03-23T21:38:58.143Z,75.09
2019-03-23T21:44:30.921Z,75.11
2019-03-23T21:47:02.634Z,75.06
2019-03-23T21:49:41.603Z,75.15
2019-03-23T21:52:23.717Z,75.54
2019-03-23T21:54:53.273Z,75.58
2019-03-23T21:57:22.902Z,75.27
2019-03-23T21:59:52.727Z,75.37
2019-03-23T22:02:22.297Z,75.55
2019-03-23T22:04:51.853Z,76.07
2019-03-23T22:07:21.069Z,76.06
2019-03-23T22:09:49.903Z,75.74
2019-03-23T22:12:19.043Z,76.42
2019-03-23T22:14:47.834Z,76.14
2019-03-23T22:17:16.729Z,76.07
2019-03-23T22:19:45.183Z,76.15
2019-03-23T22:22:14.036Z,76.40
2019-03-23T22:24:43.235Z,76.32
2019-03-23T22:27:12.417Z,76.70
2019-03-23T22:29:41.272Z,76.81
2019-03-23T22:32:09.965Z,76.86
2019-03-23T22:34:39.488Z,76.80
2019-03-23T22:37:08.918Z,76.53
2019-03-23T22:40:17.855Z,76.90
2019-03-23T22:43:05.248Z,76.66
2019-03-23T22:45:35.804Z,76.99
2019-03-23T22:48:12.345Z,76.98
2019-03-23T22:51:00.351Z,76.83
2019-03-23T22:53:29.903Z,77.88
2019-03-23T22:55:59.012Z,78.08
2019-03-23T22:58:28.219Z,77.53
2019-03-23T23:00:57.058Z,78.22
2019-03-23T23:03:45.394Z,78.46
2019-03-23T23:06:15.396Z,78.05
2019-03-23T23:11:46.214Z,78.18
2019-03-23T23:15:03.982Z,78.70
2019-03-23T23:17:35.578Z,78.47
2019-03-23T23:20:04.270Z,78.39
2019-03-23T23:22:52.202Z,78.86
2019-03-23T23:25:21.122Z,78.42
2019-03-23T23:27:49.732Z,78.99
2019-03-23T23:30:18.368Z,78.90
2019-03-23T23:32:46.754Z,79.59
2019-03-23T23:38:18.588Z,79.70
2019-03-23T23:40:47.880Z,79.51
2019-03-23T23:43:17.047Z,79.69
2019-03-23T23:45:45.889Z,79.10
2019-03-23T23:48:14.826Z,79.50
2019-03-23T23:50:43.968Z,79.70
2019-03-23T23:53:13.088Z,80.00
2019-03-23T23:58:43.155Z,79.70
